Latest Weather Observations for Cape Wessel

IDD60801

Issued at 8:35 pm CST Friday 24 October 2014 (issued every 30 minutes, with the page automatically refreshed every 10 minutes)

About weather observations | Map of weather stations | Latest weather observations for NT | Other Formats
Station Details ID: 200786 Name: CAPE WESSEL Lat: -11.00 Lon: 136.76 Height: 18.0 m
Data from the previous 72 hours. | See also: Recent months for locations in Northern Territory
Date/Time
CST
Temp
°C
App
Temp
°C
Dew
Point
Rel
Hum
%
Delta-T
°C
Wind Press
QNH
hPa
Press
MSL
hPa
Rain
since 9 am
mm
Dir
 
Spd
km/h
Gust
km/h
Spd
kts
Gust
kts
24/08:30pm 25.8 24.9 20.6 73 3.4 E 26 32 14 17 1013.4 - 0.0
24/08:00pm 25.8 25.2 20.6 73 3.4 E 24 32 13 17 1013.1 - 0.0
24/07:30pm 25.9 24.5 20.5 72 3.5 E 28 35 15 19 1012.5 - 0.0
24/07:00pm 25.9 24.9 20.5 72 3.5 E 26 32 14 17 1012.2 - 0.0
24/06:30pm 25.9 25.1 20.0 70 3.8 E 24 32 13 17 1011.8 - 0.0
24/06:00pm 26.5 25.3 20.1 68 4.2 E 26 35 14 19 1011.4 1011.2 0.0
24/05:30pm 27.3 26.5 20.1 64 4.7 E 24 32 13 17 1011.3 - 0.0
24/05:00pm 28.2 27.2 20.5 63 5.1 E 26 32 14 17 1011.2 - 0.0
24/04:30pm 28.7 27.6 20.2 60 5.6 E 26 33 14 18 1011.1 - 0.0
24/04:00pm 29.7 28.5 20.8 58 5.9 E 28 33 15 18 1011.1 - 0.0
24/03:30pm 29.7 28.3 20.5 57 6.1 E 28 35 15 19 1011.4 - 0.0
24/03:00pm 29.8 29.6 21.2 60 5.8 E 24 32 13 17 1011.7 1011.5 0.0
24/02:30pm 30.4 28.9 20.9 57 6.3 E 30 37 16 20 1011.6 - 0.0
24/02:00pm 30.5 29.5 21.3 58 6.2 E 28 35 15 19 1011.9 - 0.0
24/01:30pm 30.9 29.6 21.4 57 6.4 E 30 39 16 21 1012.2 - 0.0
24/01:00pm 31.1 30.1 21.9 58 6.2 E 30 39 16 21 1012.6 - 0.0
24/12:30pm 30.8 28.9 21.0 56 6.6 E 32 39 17 21 1013.2 - 0.0
24/12:00pm 31.6 29.9 21.4 54 6.9 E 32 39 17 21 1013.6 1013.4 0.0
24/11:30am 31.5 29.7 21.1 54 7.0 E 32 39 17 21 1014.0 - 0.0
24/11:00am 31.0 29.1 20.9 55 6.7 ESE 32 39 17 21 1014.4 - 0.0
24/10:30am 31.1 29.4 21.3 56 6.6 ESE 32 41 17 22 1014.8 - 0.0
24/10:00am 30.3 28.1 20.8 56 6.3 E 33 41 18 22 1015.2 - 0.0
24/09:30am 29.0 27.6 20.4 59 5.7 E 28 35 15 19 1015.3 - 0.0
24/09:00am 29.8 28.9 21.5 61 5.6 E 28 35 15 19 1015.4 1015.2 0.0
24/08:30am 29.6 29.3 21.8 63 5.3 E 26 33 14 18 1015.5 - 0.0
24/08:00am 28.6 28.4 22.1 68 4.4 E 26 32 14 17 1015.2 - 0.0
24/07:30am 27.6 27.0 21.9 71 3.8 ESE 28 33 15 18 1014.9 - 0.0
24/07:00am 26.6 26.9 22.2 77 3.0 ESE 24 30 13 16 1014.7 - 0.0
24/06:30am 25.9 26.0 21.8 78 2.7 E 24 32 13 17 1014.5 - 0.0
24/06:00am 25.3 25.1 21.2 78 2.7 E 24 30 13 16 1014.0 1013.8 0.0
24/05:30am 25.1 25.2 21.2 79 2.6 E 22 28 12 15 1013.4 - 0.0
24/05:00am 25.1 25.2 21.2 79 2.6 E 22 26 12 14 1013.0 - 0.0
24/04:30am 25.0 25.5 21.1 79 2.6 E 20 28 11 15 1012.8 - 0.0
24/04:00am 25.0 25.0 20.9 78 2.7 E 22 28 12 15 1012.5 - 0.0
24/03:30am 25.0 25.0 20.9 78 2.7 E 22 28 12 15 1012.3 - 0.0
24/03:00am 25.1 24.9 21.2 79 2.6 ESE 24 28 13 15 1012.2 1012.0 0.0
24/02:30am 25.2 25.5 21.5 80 2.5 ESE 22 28 12 15 1012.4 - 0.0
24/02:00am 25.2 25.0 21.3 79 2.6 ESE 24 30 13 16 1012.6 - 0.0
24/01:30am 25.4 25.4 21.7 80 2.5 ESE 24 30 13 16 1012.9 - 0.0
24/01:00am 25.4 25.3 21.5 79 2.6 ESE 24 30 13 16 1013.2 - 0.0
24/12:30am 25.5 26.4 22.0 81 2.3 ESE 20 26 11 14 1013.4 - 0.0
24/12:00am 25.5 25.5 21.6 79 2.6 ESE 24 28 13 15 1013.8 1013.6 0.0
 
Date/Time
CST
Temp
°C
App
Temp
°C
Dew
Point
Rel
Hum
%
Delta-T
°C
Wind Press
QNH
hPa
Press
MSL
hPa
Rain
since 9 am
mm
Dir
 
Spd
km/h
Gust
km/h
Spd
kts
Gust
kts
23/11:30pm 25.7 25.9 22.0 80 2.5 ESE 24 28 13 15 1014.2 - 0.0
23/11:00pm 25.7 25.8 21.8 79 2.6 ESE 24 28 13 15 1014.3 - 0.0
23/10:30pm 25.8 26.8 22.1 80 2.5 ESE 20 24 11 13 1014.3 - 0.0
23/10:00pm 25.9 26.3 21.8 78 2.7 ESE 22 28 12 15 1014.2 - 0.0
23/09:30pm 26.0 26.1 21.9 78 2.7 ESE 24 30 13 16 1014.1 - 0.0
23/09:00pm 26.1 26.3 22.0 78 2.7 E 24 30 13 16 1013.6 1013.4 0.0
23/08:30pm 26.2 26.8 22.1 78 2.7 E 22 28 12 15 1013.2 - 0.0
23/08:00pm 26.1 26.5 21.7 77 2.9 E 22 28 12 15 1012.9 - 0.0
23/07:30pm 26.4 26.9 22.0 77 2.9 ESE 22 28 12 15 1012.6 - 0.0
23/07:00pm 26.4 26.1 21.8 76 3.1 E 26 32 14 17 1012.3 - 0.0
23/06:30pm 26.4 26.4 21.6 75 3.2 E 24 30 13 16 1012.1 - 0.0
23/06:00pm 27.0 27.2 22.0 74 3.4 ESE 24 30 13 16 1011.9 1011.7 0.0
23/05:30pm 27.8 27.8 21.6 69 4.1 E 24 30 13 16 1011.4 - 0.0
23/05:00pm 28.7 29.0 22.2 68 4.4 ESE 24 30 13 16 1011.2 - 0.0
23/04:30pm 28.9 29.2 22.2 67 4.5 E 24 32 13 17 1011.2 - 0.0
23/04:00pm 29.0 28.9 21.5 64 5.0 ESE 24 30 13 16 1011.3 - 0.0
23/03:30pm 29.7 29.0 21.1 60 5.7 ESE 26 30 14 16 1011.5 - 0.0
23/03:00pm 31.2 31.5 22.2 58 6.1 ESE 24 30 13 16 1011.6 1011.4 0.0
23/02:30pm 30.2 30.3 21.8 60 5.7 E 24 30 13 16 1011.6 - 0.0
23/02:00pm 29.8 29.7 21.5 61 5.6 E 24 33 13 18 1011.9 - 0.0
23/01:30pm 31.9 32.6 22.9 59 6.2 E 24 30 13 16 1012.3 - 0.0
23/01:00pm 31.9 32.3 23.2 60 6.0 E 26 33 14 18 1012.7 - 0.0
23/12:30pm 32.7 33.7 24.2 61 5.9 E 26 33 14 18 1013.0 - 0.0
23/12:00pm 31.3 31.2 22.9 61 5.8 E 28 35 15 19 1013.4 1013.2 0.0
23/11:30am 31.7 31.0 21.8 55 6.7 E 28 35 15 19 1013.6 - 0.0
23/11:00am 30.9 30.9 23.0 62 5.4 E 28 35 15 19 1013.9 - 0.0
23/10:00am 31.3 31.8 22.0 57 6.3 E 22 30 12 16 1014.2 - 0.0
23/09:30am 31.2 32.8 22.8 61 5.8 E 19 24 10 13 1014.4 - 0.0
23/09:00am 30.4 31.8 22.8 64 5.2 E 20 24 11 13 1014.5 1014.3 0.0
23/08:30am 29.6 30.6 22.1 64 5.1 E 20 24 11 13 1014.7 - 0.0
23/08:00am 29.0 30.5 22.7 69 4.3 E 19 24 10 13 1014.6 - 0.0
23/07:30am 28.1 29.2 22.3 70 3.9 E 20 24 11 13 1014.3 - 0.0
23/07:00am 27.1 28.3 22.5 76 3.1 E 20 24 11 13 1013.9 - 0.0
23/06:30am 25.7 26.6 22.0 80 2.5 E 20 24 11 13 1013.7 - 0.0
23/06:00am 25.5 26.6 22.0 81 2.3 E 19 24 10 13 1013.6 1013.4 0.0
23/05:30am 25.5 26.5 21.8 80 2.5 E 19 24 10 13 1013.2 - 0.0
23/05:00am 25.5 26.0 22.0 81 2.3 ESE 22 28 12 15 1012.9 - 0.0
23/04:30am 25.4 25.9 21.9 81 2.3 E 22 30 12 16 1012.6 - 0.0
23/04:00am 25.4 26.1 22.3 83 2.1 E 22 28 12 15 1012.5 - 0.0
23/03:30am 25.5 26.3 22.4 83 2.1 ESE 22 26 12 14 1012.5 - 0.0
23/03:00am 25.0 26.2 22.1 84 1.9 ESE 19 22 10 12 1012.5 1012.3 0.0
23/02:30am 25.0 26.2 22.1 84 1.9 ESE 19 20 10 11 1012.6 - 0.0
23/02:00am 24.9 26.5 22.2 85 1.8 E 17 20 9 11 1012.9 - 0.0
23/01:30am 24.9 27.2 22.0 84 1.9 ESE 13 17 7 9 1013.0 - 0.0
23/01:00am 25.1 27.0 22.0 83 2.1 ESE 15 19 8 10 1013.2 - 0.0
23/12:30am 25.3 27.3 22.2 83 2.1 ESE 15 19 8 10 1013.6 - 0.0
23/12:00am 25.4 26.7 21.7 80 2.5 E 17 22 9 12 1013.8 1013.6 0.0
 
Date/Time
CST
Temp
°C
App
Temp
°C
Dew
Point
Rel
Hum
%
Delta-T
°C
Wind Press
QNH
hPa
Press
MSL
hPa
Rain
since 9 am
mm
Dir
 
Spd
km/h
Gust
km/h
Spd
kts
Gust
kts
22/11:30pm 25.6 26.6 22.1 81 2.3 E 20 24 11 13 1014.0 - 0.0
22/11:00pm 25.7 26.6 22.0 80 2.5 E 20 24 11 13 1014.2 - 0.0
22/10:30pm 25.7 26.6 22.0 80 2.5 ESE 20 24 11 13 1014.3 - 0.0
22/10:00pm 25.9 26.9 22.2 80 2.5 ESE 20 26 11 14 1014.3 - 0.0
22/09:30pm 25.9 26.4 22.0 79 2.6 ESE 22 28 12 15 1013.9 - 0.0
22/09:00pm 26.0 26.1 21.9 78 2.7 E 24 30 13 16 1013.7 1013.5 0.0
22/08:30pm 26.1 26.3 22.0 78 2.7 E 24 30 13 16 1013.3 - 0.0
22/08:00pm 26.2 25.9 21.8 77 2.9 E 26 32 14 17 1013.1 - 0.0
22/07:30pm 26.2 26.3 21.8 77 2.9 E 24 30 13 16 1012.8 - 0.0
22/07:00pm 26.3 25.8 21.5 75 3.2 E 26 32 14 17 1012.7 - 0.0
22/06:30pm 26.5 26.0 21.5 74 3.3 E 26 32 14 17 1012.4 - 0.0
22/06:00pm 26.9 26.7 21.2 71 3.8 E 24 30 13 16 1012.4 1012.2 0.0
22/05:30pm 27.8 27.8 21.6 69 4.1 E 24 30 13 16 1012.2 - 0.0
22/05:00pm 28.7 28.3 21.7 66 4.7 E 26 30 14 16 1012.0 - 0.0
22/04:30pm 29.3 29.5 22.0 64 4.9 E 24 32 13 17 1011.9 - 0.0
22/04:00pm 28.2 28.1 22.2 70 4.0 E 26 32 14 17 1011.8 - 0.0
22/03:30pm 31.3 32.2 22.6 60 5.9 ESE 22 28 12 15 1011.9 - 0.0
22/03:00pm 31.4 32.2 22.4 59 6.1 ESE 22 28 12 15 1012.1 1011.9 0.0
22/02:30pm 31.6 32.5 22.6 59 6.2 ESE 22 26 12 14 1012.3 - 0.0
22/02:00pm 31.8 33.0 22.5 58 6.4 ESE 20 26 11 14 1012.5 - 0.0
22/01:30pm 31.8 33.0 22.5 58 6.4 ESE 20 26 11 14 1012.9 - 0.0
22/01:00pm 31.3 32.1 21.8 57 6.4 ESE 20 26 11 14 1013.4 - 0.0
22/12:30pm 31.9 32.8 22.6 58 6.4 ESE 22 26 12 14 1013.9 - 0.0
22/12:00pm 31.6 32.3 22.3 57 6.3 ESE 22 28 12 15 1014.3 1014.1 0.0
22/11:30am 31.5 32.5 22.2 57 6.3 ESE 20 26 11 14 1014.6 - 0.0
22/11:00am 30.8 31.7 21.9 59 6.0 ESE 20 24 11 13 1014.8 - 0.0
22/10:30am 31.0 31.8 21.8 58 6.2 E 20 24 11 13 1015.1 - 0.0
22/10:00am 30.6 31.5 21.9 59 5.9 E 20 26 11 14 1015.4 - 0.0
22/09:30am 30.8 32.3 22.7 62 5.5 E 19 24 10 13 1015.6 - 0.0
22/09:00am 30.0 31.4 21.9 62 5.5 E 17 20 9 11 1015.7 1015.5 0.0
22/08:30am 29.4 30.8 21.9 64 5.1 ESE 17 20 9 11 1015.6 - 0.0
22/08:00am 28.9 30.5 22.2 67 4.5 E 17 20 9 11 1015.4 - 0.0
22/07:30am 28.1 29.7 22.1 70 4.0 E 17 20 9 11 1015.0 - 0.0
22/07:00am 26.9 28.3 21.9 74 3.3 E 17 20 9 11 1014.6 - 0.0
22/06:30am 25.6 27.4 21.9 80 2.5 E 15 17 8 9 1014.3 - 0.0
22/06:00am 25.0 26.6 21.5 81 2.3 E 15 19 8 10 1013.9 1013.7 0.0
22/05:30am 25.1 25.9 21.4 80 2.4 ESE 19 20 10 11 1013.6 - 0.0
22/05:00am 25.1 25.9 21.4 80 2.4 ESE 19 24 10 13 1013.4 - 0.0
22/04:30am 25.2 26.0 21.7 81 2.3 ESE 20 26 11 14 1013.2 - 0.0
22/04:00am 25.1 25.5 21.8 82 2.2 ESE 22 26 12 14 1013.1 - 0.0
22/03:30am 25.3 26.3 22.2 83 2.1 E 20 24 11 13 1012.9 - 0.0
22/03:00am 25.2 26.3 22.3 84 1.9 E 20 26 11 14 1012.8 1012.6 0.0
22/02:30am 25.2 26.2 22.1 83 2.1 E 20 24 11 13 1013.0 - 0.0
22/02:00am 25.2 26.4 22.1 83 2.1 ESE 19 22 10 12 1013.2 - 0.0
22/01:30am 25.3 26.4 22.0 82 2.2 ESE 19 22 10 12 1013.6 - 0.0
22/01:00am 25.3 26.4 22.0 82 2.2 ESE 19 22 10 12 1013.9 - 0.0
22/12:30am 25.4 26.3 21.9 81 2.3 ESE 20 24 11 13 1014.1 - 0.0
22/12:00am 25.6 26.8 22.5 83 2.1 ESE 20 24 11 13 1014.3 1014.1 0.0
 
Date/Time
CST
Temp
°C
App
Temp
°C
Dew
Point
Rel
Hum
%
Delta-T
°C
Wind Press
QNH
hPa
Press
MSL
hPa
Rain
since 9 am
mm
Dir
 
Spd
km/h
Gust
km/h
Spd
kts
Gust
kts
21/11:30pm 25.5 26.4 22.0 81 2.3 ESE 20 22 11 12 1014.5 - 0.0
21/11:00pm 25.7 26.7 22.2 81 2.3 ESE 20 24 11 13 1014.8 - 0.0
21/10:30pm 25.9 26.7 22.4 81 2.4 ESE 22 28 12 15 1014.8 - 0.0
21/10:00pm 26.0 26.1 21.9 78 2.7 ESE 24 30 13 16 1014.9 - 0.0
21/09:30pm 26.2 26.5 22.3 79 2.6 ESE 24 28 13 15 1014.7 - 0.0
21/09:00pm 26.1 25.9 22.0 78 2.7 E 26 33 14 18 1014.4 1014.2 0.0

Other Formats:

Comma delimited format used in spreadsheet applications
http://www.bom.gov.au/fwo/IDD60801/IDD60801.94147.axf

JavaScript Object Notation format (JSON) in row-major order
http://www.bom.gov.au/fwo/IDD60801/IDD60801.94147.json